createdAt,value
2019-04-21T00:01:57.853Z,15.60
2019-04-21T00:04:40.718Z,15.40
2019-04-21T00:07:31.897Z,15.40
2019-04-21T00:12:19.667Z,15.30
2019-04-21T00:14:42.393Z,15.20
2019-04-21T00:17:05.869Z,15.20
2019-04-21T00:19:43.022Z,14.90
2019-04-21T00:22:23.700Z,14.90
2019-04-21T00:24:59.769Z,15.00
2019-04-21T00:27:32.026Z,15.00
2019-04-21T00:30:04.626Z,14.80
2019-04-21T00:32:28.088Z,14.80
2019-04-21T00:34:51.009Z,14.70
2019-04-21T00:37:24.175Z,14.70
2019-04-21T00:40:06.322Z,14.60
2019-04-21T00:42:37.411Z,14.70
2019-04-21T00:45:01.938Z,14.50
2019-04-21T00:47:35.826Z,14.40
2019-04-21T00:50:05.081Z,14.40
2019-04-21T00:52:51.001Z,14.40
2019-04-21T00:57:51.710Z,14.40
2019-04-21T01:00:20.235Z,14.30
2019-04-21T01:02:52.534Z,14.20
2019-04-21T01:05:36.101Z,14.20
2019-04-21T01:07:48.244Z,14.20
2019-04-21T01:10:09.371Z,14.20
2019-04-21T01:12:49.264Z,14.30
2019-04-21T01:15:24.641Z,14.10
2019-04-21T01:17:46.028Z,14.10
2019-04-21T01:20:13.273Z,13.90
2019-04-21T01:22:28.218Z,13.80
2019-04-21T01:25:05.605Z,14.00
2019-04-21T01:27:49.408Z,14.00
2019-04-21T01:30:16.519Z,13.90
2019-04-21T01:32:51.246Z,14.10
2019-04-21T01:35:16.439Z,13.90
2019-04-21T01:37:52.423Z,13.90
2019-04-21T01:40:22.906Z,13.90
2019-04-21T01:42:51.161Z,13.80
2019-04-21T01:45:14.703Z,14.00
2019-04-21T01:47:46.325Z,13.80
2019-04-21T01:50:19.843Z,13.70
2019-04-21T01:53:11.344Z,13.60
2019-04-21T01:55:25.242Z,13.70
2019-04-21T01:57:54.002Z,13.60
2019-04-21T02:00:30.522Z,13.60
2019-04-21T02:03:10.735Z,13.70
2019-04-21T02:05:37.548Z,13.60
2019-04-21T02:08:01.086Z,13.70
2019-04-21T02:10:44.419Z,13.50
2019-04-21T02:13:03.448Z,13.60
2019-04-21T02:15:36.044Z,13.60
2019-04-21T02:18:06.091Z,13.60
2019-04-21T02:20:26.944Z,13.50
2019-04-21T02:23:19.089Z,13.60
2019-04-21T02:25:41.019Z,13.70
2019-04-21T02:28:13.453Z,13.60
2019-04-21T02:30:57.995Z,13.50
2019-04-21T02:33:28.008Z,13.40
2019-04-21T02:38:23.773Z,13.40
2019-04-21T02:40:51.356Z,13.50
2019-04-21T02:48:35.295Z,13.30
2019-04-21T02:50:47.252Z,13.00
2019-04-21T02:53:37.409Z,13.10
2019-04-21T02:55:50.846Z,13.10
2019-04-21T03:01:24.371Z,12.80
2019-04-21T03:04:04.844Z,12.90
2019-04-21T03:06:27.133Z,12.90
2019-04-21T03:11:24.173Z,12.70
2019-04-21T03:13:57.291Z,12.70
2019-04-21T03:16:22.566Z,12.70
2019-04-21T03:19:04.929Z,12.90
2019-04-21T03:21:25.913Z,12.70
2019-04-21T03:23:54.061Z,12.50
2019-04-21T03:26:28.327Z,12.70
2019-04-21T03:28:54.420Z,12.80
2019-04-21T03:31:49.452Z,12.50
2019-04-21T03:34:34.744Z,12.60
2019-04-21T03:38:57.213Z,12.50
2019-04-21T03:43:58.946Z,12.50
2019-04-21T03:46:39.275Z,12.40
2019-04-21T03:53:54.003Z,12.50
2019-04-21T03:56:44.345Z,12.40
2019-04-21T03:58:58.498Z,12.40
2019-04-21T04:04:15.594Z,12.40
2019-04-21T04:06:46.952Z,12.40
2019-04-21T04:09:44.495Z,12.20
2019-04-21T04:11:56.687Z,12.30
2019-04-21T04:14:33.504Z,12.40
2019-04-21T04:17:10.143Z,12.30
2019-04-21T04:19:34.401Z,12.20
2019-04-21T04:22:06.028Z,12.10
2019-04-21T04:24:39.611Z,12.10
2019-04-21T04:27:09.748Z,12.00
2019-04-21T04:31:55.387Z,12.10
2019-04-21T04:37:12.634Z,12.10
2019-04-21T04:44:59.669Z,12.10
2019-04-21T04:47:18.343Z,12.20
2019-04-21T04:49:47.960Z,12.30
2019-04-21T04:57:27.467Z,12.10
2019-04-21T04:59:47.623Z,12.00
2019-04-21T05:02:20.663Z,12.00
2019-04-21T05:04:59.276Z,11.90
2019-04-21T05:07:17.416Z,11.70
2019-04-21T05:09:46.927Z,11.80
2019-04-21T05:12:11.960Z,12.00
2019-04-21T05:14:48.239Z,12.10
2019-04-21T05:17:21.517Z,12.20
2019-04-21T05:19:54.018Z,12.10
2019-04-21T05:22:16.855Z,12.10
2019-04-21T05:24:33.274Z,11.90
2019-04-21T05:27:05.032Z,11.70
2019-04-21T05:29:56.783Z,11.80
2019-04-21T05:32:16.997Z,12.00
2019-04-21T05:34:50.339Z,11.70
2019-04-21T05:37:31.696Z,11.70
2019-04-21T05:39:57.478Z,11.60
2019-04-21T05:42:28.445Z,11.60
2019-04-21T05:45:07.682Z,11.60
2019-04-21T05:47:39.761Z,11.80
2019-04-21T05:50:07.598Z,11.90
2019-04-21T05:52:35.371Z,11.90
2019-04-21T05:55:16.723Z,12.00
2019-04-21T05:57:44.231Z,12.10
2019-04-21T06:00:15.632Z,12.00
2019-04-21T06:02:47.164Z,12.10
2019-04-21T06:05:23.184Z,12.20
2019-04-21T06:07:42.720Z,12.40
2019-04-21T06:10:12.418Z,12.40
2019-04-21T06:12:50.307Z,12.60
2019-04-21T06:15:26.570Z,12.70
2019-04-21T06:17:55.045Z,12.70
2019-04-21T06:20:21.221Z,12.50
2019-04-21T06:22:54.236Z,12.20
2019-04-21T06:25:43.143Z,12.60
2019-04-21T06:27:51.016Z,12.90
2019-04-21T06:30:22.090Z,12.80
2019-04-21T06:32:49.119Z,13.00
2019-04-21T06:35:45.550Z,13.00
2019-04-21T06:38:03.787Z,13.30
2019-04-21T06:40:38.976Z,13.40
2019-04-21T06:43:13.017Z,13.70
2019-04-21T06:45:37.776Z,13.90
2019-04-21T06:48:06.297Z,14.10
2019-04-21T06:50:39.535Z,14.20
2019-04-21T06:53:06.827Z,13.90
2019-04-21T06:55:32.068Z,14.30
2019-04-21T06:58:07.908Z,14.60
2019-04-21T07:00:31.826Z,14.70
2019-04-21T07:03:16.012Z,14.70
2019-04-21T07:05:44.101Z,14.50
2019-04-21T07:08:21.692Z,14.50
2019-04-21T07:10:37.151Z,14.50
2019-04-21T07:13:03.671Z,14.40
2019-04-21T07:15:37.403Z,14.60
2019-04-21T07:18:12.912Z,14.60
2019-04-21T07:20:36.628Z,14.90
2019-04-21T07:23:09.444Z,15.00
2019-04-21T07:25:39.083Z,15.10
2019-04-21T07:28:10.829Z,14.90
2019-04-21T07:30:51.857Z,15.30
2019-04-21T07:33:36.027Z,15.50
2019-04-21T07:35:45.682Z,15.60
2019-04-21T07:38:09.638Z,15.20
2019-04-21T07:40:33.390Z,15.60
2019-04-21T07:43:08.646Z,15.70
2019-04-21T07:45:36.728Z,15.90
2019-04-21T07:48:14.324Z,16.00
2019-04-21T07:50:47.383Z,16.20
2019-04-21T07:53:36.470Z,16.50
2019-04-21T07:55:40.218Z,16.70
2019-04-21T07:58:31.831Z,16.70
2019-04-21T08:03:47.809Z,16.70
2019-04-21T08:06:09.873Z,16.80
2019-04-21T08:08:26.514Z,17.00
2019-04-21T08:10:56.969Z,17.10
2019-04-21T08:15:58.183Z,17.70
2019-04-21T08:18:33.505Z,17.80
2019-04-21T08:21:00.780Z,17.90
2019-04-21T08:23:31.831Z,18.00
2019-04-21T08:26:04.716Z,18.30
2019-04-21T08:28:35.428Z,18.50
2019-04-21T08:31:01.401Z,18.90
2019-04-21T08:33:38.389Z,18.40
2019-04-21T08:38:35.884Z,19.20
2019-04-21T08:46:08.147Z,20.00
2019-04-21T08:48:37.917Z,20.40
2019-04-21T08:51:24.489Z,20.40
2019-04-21T08:53:41.135Z,20.60
2019-04-21T08:58:56.068Z,20.50
2019-04-21T09:01:30.691Z,20.40
2019-04-21T09:04:02.761Z,20.90
2019-04-21T09:06:51.250Z,20.90
2019-04-21T09:09:17.892Z,21.20
2019-04-21T09:11:30.725Z,20.70
2019-04-21T09:14:04.748Z,20.90
2019-04-21T09:16:27.839Z,21.70
2019-04-21T09:18:54.390Z,21.90
2019-04-21T09:21:31.408Z,21.30
2019-04-21T09:24:04.542Z,21.70
2019-04-21T09:26:29.401Z,21.40
2019-04-21T09:28:52.231Z,21.80
2019-04-21T09:31:17.952Z,21.60
2019-04-21T09:33:48.780Z,21.30
2019-04-21T09:36:18.048Z,21.90
2019-04-21T09:38:50.722Z,21.70
2019-04-21T09:41:18.944Z,21.70
2019-04-21T09:43:48.956Z,22.00
2019-04-21T09:46:16.126Z,22.60
2019-04-21T09:48:54.912Z,22.20
2019-04-21T09:51:15.556Z,22.20
2019-04-21T09:53:56.164Z,22.60
2019-04-21T09:56:17.964Z,22.20
2019-04-21T09:58:49.739Z,22.40
2019-04-21T10:01:23.958Z,22.60
2019-04-21T10:03:48.680Z,22.80
2019-04-21T10:06:17.506Z,22.20
2019-04-21T10:08:50.371Z,21.90
2019-04-21T10:11:16.493Z,22.30
2019-04-21T10:13:46.242Z,22.40
2019-04-21T10:16:34.180Z,23.10
2019-04-21T10:19:04.524Z,23.10
2019-04-21T10:21:33.918Z,22.80
2019-04-21T10:24:02.577Z,22.90
2019-04-21T10:26:31.147Z,23.40
2019-04-21T10:29:08.171Z,23.60
2019-04-21T10:31:29.937Z,23.80
2019-04-21T10:33:59.090Z,23.30
2019-04-21T10:36:28.962Z,23.40
2019-04-21T10:38:58.984Z,23.20
2019-04-21T10:41:27.826Z,22.50
2019-04-21T10:43:56.431Z,22.90
2019-04-21T10:46:24.994Z,23.10
2019-04-21T10:48:54.827Z,23.40
2019-04-21T10:51:23.540Z,23.60
2019-04-21T10:53:54.290Z,23.80
2019-04-21T10:56:30.647Z,23.80
2019-04-21T10:58:54.171Z,24.30
2019-04-21T11:01:25.172Z,24.30
2019-04-21T11:04:02.585Z,23.90
2019-04-21T11:06:32.494Z,24.20
2019-04-21T11:09:01.983Z,24.60
2019-04-21T11:11:32.124Z,24.80
2019-04-21T11:14:02.233Z,24.80
2019-04-21T11:16:31.077Z,25.00
2019-04-21T11:18:59.999Z,25.30
2019-04-21T11:21:29.164Z,25.40
2019-04-21T11:23:58.470Z,24.90
2019-04-21T11:26:27.620Z,25.20
2019-04-21T11:28:56.800Z,25.80
2019-04-21T11:31:27.234Z,26.00
2019-04-21T11:33:57.426Z,26.00
2019-04-21T11:36:27.128Z,26.10
2019-04-21T11:39:16.351Z,26.30
2019-04-21T11:41:31.875Z,26.30
2019-04-21T11:44:01.453Z,26.10
2019-04-21T11:46:30.774Z,26.40
2019-04-21T11:49:00.093Z,26.80
2019-04-21T11:51:28.990Z,26.70
2019-04-21T11:53:59.047Z,26.80
2019-04-21T11:56:27.878Z,27.20
2019-04-21T11:58:57.821Z,26.90
2019-04-21T12:01:27.657Z,26.80
2019-04-21T12:03:57.830Z,26.70
2019-04-21T12:06:32.234Z,27.20
2019-04-21T12:08:59.831Z,27.00
2019-04-21T12:11:27.424Z,26.40
2019-04-21T12:13:56.330Z,26.90
2019-04-21T12:16:25.202Z,27.10
2019-04-21T12:18:54.672Z,27.30
2019-04-21T12:21:23.432Z,27.20
2019-04-21T12:23:52.401Z,27.60
2019-04-21T12:26:22.042Z,27.60
2019-04-21T12:28:51.933Z,27.80
2019-04-21T12:31:27.634Z,26.70
2019-04-21T12:33:58.143Z,26.40
2019-04-21T12:36:27.571Z,26.30
2019-04-21T12:38:59.668Z,26.30
2019-04-21T12:41:26.740Z,26.40
2019-04-21T12:43:55.393Z,26.90
2019-04-21T12:46:24.041Z,27.50
2019-04-21T12:48:53.728Z,27.50
2019-04-21T12:51:23.847Z,27.40
2019-04-21T12:53:53.926Z,27.50
2019-04-21T12:56:23.421Z,28.00
2019-04-21T12:58:53.286Z,28.10
2019-04-21T13:01:23.070Z,27.30
2019-04-21T13:03:52.111Z,26.80
2019-04-21T13:06:21.411Z,27.10
2019-04-21T13:08:58.915Z,27.30
2019-04-21T13:11:21.399Z,27.60
2019-04-21T13:13:50.610Z,26.70
2019-04-21T13:16:19.609Z,27.50
2019-04-21T13:18:49.221Z,28.30
2019-04-21T13:21:18.158Z,28.80
2019-04-21T13:23:47.246Z,28.60
2019-04-21T13:26:27.069Z,28.30
2019-04-21T13:28:46.065Z,28.30
2019-04-21T13:31:16.055Z,28.50
2019-04-21T13:33:46.061Z,28.10
2019-04-21T13:36:15.761Z,28.50
2019-04-21T13:39:27.520Z,28.60
2019-04-21T13:41:41.846Z,28.10
2019-04-21T13:44:13.293Z,28.20
2019-04-21T13:46:43.076Z,28.10
2019-04-21T13:49:13.691Z,28.50
2019-04-21T13:51:43.847Z,28.20
2019-04-21T13:54:13.889Z,27.70
2019-04-21T13:56:42.677Z,27.40
2019-04-21T13:59:11.371Z,27.90
2019-04-21T14:01:41.311Z,27.90
2019-04-21T14:04:11.529Z,27.90
2019-04-21T14:06:42.386Z,27.30
2019-04-21T14:09:13.712Z,27.50
2019-04-21T14:11:43.580Z,27.30
2019-04-21T14:14:12.521Z,27.20
2019-04-21T14:16:42.282Z,27.50
2019-04-21T14:19:11.043Z,27.10
2019-04-21T14:21:41.322Z,27.10
2019-04-21T14:24:10.883Z,27.50
2019-04-21T14:26:40.460Z,27.60
2019-04-21T14:29:09.874Z,27.00
2019-04-21T14:31:40.202Z,26.70
2019-04-21T14:34:10.074Z,26.60
2019-04-21T14:36:39.023Z,26.60
2019-04-21T14:39:10.566Z,26.40
2019-04-21T14:41:40.315Z,26.40
2019-04-21T14:44:09.257Z,26.40
2019-04-21T14:46:42.802Z,26.20
2019-04-21T14:49:13.149Z,26.40
2019-04-21T14:51:49.548Z,26.20
2019-04-21T14:54:20.644Z,26.10
2019-04-21T14:56:49.382Z,26.60
2019-04-21T14:59:19.240Z,26.30
2019-04-21T15:01:49.469Z,26.70
2019-04-21T15:04:19.371Z,26.60
2019-04-21T15:06:49.552Z,26.40
2019-04-21T15:09:18.899Z,26.40
2019-04-21T15:11:47.765Z,26.10
2019-04-21T15:14:17.759Z,26.10
2019-04-21T15:16:47.077Z,26.10
2019-04-21T15:19:16.881Z,25.90
2019-04-21T15:21:45.684Z,26.20
2019-04-21T15:24:14.319Z,26.10
2019-04-21T15:26:44.194Z,26.00
2019-04-21T15:29:13.015Z,25.90
2019-04-21T15:31:44.610Z,26.00
2019-04-21T15:34:12.983Z,25.80
2019-04-21T15:36:41.975Z,25.90
2019-04-21T15:39:11.892Z,25.90
2019-04-21T15:41:40.839Z,25.50
2019-04-21T15:44:09.869Z,25.50
2019-04-21T15:46:39.906Z,25.40
2019-04-21T15:49:09.215Z,25.30
2019-04-21T15:51:38.051Z,25.00
2019-04-21T15:54:06.934Z,24.90
2019-04-21T15:56:40.784Z,25.00
2019-04-21T15:59:14.717Z,24.80
2019-04-21T16:01:52.417Z,25.00
2019-04-21T16:04:21.033Z,25.20
2019-04-21T16:06:49.887Z,24.90
2019-04-21T16:09:21.665Z,24.60
2019-04-21T16:11:49.717Z,24.80
2019-04-21T16:14:18.727Z,24.80
2019-04-21T16:16:47.470Z,24.50
2019-04-21T16:19:16.428Z,24.70
2019-04-21T16:21:46.517Z,24.50
2019-04-21T16:24:16.415Z,24.60
2019-04-21T16:26:46.736Z,24.60
2019-04-21T16:29:15.549Z,24.40
2019-04-21T16:31:44.068Z,24.20
2019-04-21T16:34:13.740Z,24.10
2019-04-21T16:36:43.532Z,24.10
2019-04-21T16:39:13.198Z,24.20
2019-04-21T16:41:42.583Z,24.10
2019-04-21T16:44:11.284Z,24.00
2019-04-21T16:46:41.254Z,23.90
2019-04-21T16:49:09.933Z,24.00
2019-04-21T16:51:38.505Z,23.90
2019-04-21T16:54:10.091Z,23.70
2019-04-21T16:56:46.183Z,23.80
2019-04-21T16:59:16.723Z,23.80
2019-04-21T17:01:46.776Z,23.80
2019-04-21T17:04:16.016Z,23.80
2019-04-21T17:06:47.135Z,23.80
2019-04-21T17:09:16.796Z,23.60
2019-04-21T17:11:46.957Z,23.60
2019-04-21T17:14:33.065Z,23.60
2019-04-21T17:17:11.386Z,23.60
2019-04-21T17:19:26.968Z,23.50
2019-04-21T17:21:47.824Z,23.40
2019-04-21T17:24:16.778Z,23.40
2019-04-21T17:26:46.480Z,23.50
2019-04-21T17:29:16.860Z,23.50
2019-04-21T17:31:45.709Z,23.40
2019-04-21T17:34:21.193Z,23.20
2019-04-21T17:36:45.380Z,23.30
2019-04-21T17:39:14.123Z,23.20
2019-04-21T17:42:04.065Z,23.30
2019-04-21T17:44:17.163Z,23.30
2019-04-21T17:46:53.826Z,23.20
2019-04-21T17:49:17.166Z,23.20
2019-04-21T17:52:06.397Z,23.00
2019-04-21T17:54:41.865Z,23.10
2019-04-21T17:57:26.758Z,23.00
2019-04-21T18:00:04.058Z,23.10
2019-04-21T18:02:30.056Z,23.10
2019-04-21T18:05:03.744Z,23.00
2019-04-21T18:07:31.178Z,23.00
2019-04-21T18:10:04.503Z,23.00
2019-04-21T18:12:32.198Z,23.00
2019-04-21T18:14:59.238Z,22.80
2019-04-21T18:17:16.356Z,22.80
2019-04-21T18:19:47.460Z,22.50
2019-04-21T18:22:39.591Z,22.40
2019-04-21T18:25:15.360Z,22.40
2019-04-21T18:27:38.775Z,22.30
2019-04-21T18:30:34.028Z,22.20
2019-04-21T18:33:04.681Z,22.10
2019-04-21T18:35:37.534Z,22.00
2019-04-21T18:38:16.801Z,22.00
2019-04-21T18:40:45.216Z,21.80
2019-04-21T18:46:07.038Z,21.90
2019-04-21T18:48:24.580Z,21.80
2019-04-21T18:50:57.037Z,21.70
2019-04-21T18:53:36.449Z,21.70
2019-04-21T18:55:59.432Z,21.50
2019-04-21T18:58:22.461Z,21.60
2019-04-21T19:00:53.045Z,21.60
2019-04-21T19:03:29.193Z,21.60
2019-04-21T19:05:56.666Z,21.50
2019-04-21T19:08:39.256Z,21.30
2019-04-21T19:11:15.011Z,21.30
2019-04-21T19:14:12.706Z,21.20
2019-04-21T19:16:38.918Z,21.30
2019-04-21T19:19:18.525Z,21.30
2019-04-21T19:21:25.808Z,21.30
2019-04-21T19:24:10.507Z,21.30
2019-04-21T19:26:37.752Z,21.20
2019-04-21T19:29:01.252Z,21.20
2019-04-21T19:31:31.857Z,21.20
2019-04-21T19:33:51.599Z,21.30
2019-04-21T19:36:13.237Z,21.10
2019-04-21T19:38:51.730Z,21.00
2019-04-21T19:41:28.140Z,20.90
2019-04-21T19:44:02.569Z,20.70
2019-04-21T19:46:27.847Z,20.70
2019-04-21T19:49:13.753Z,20.70
2019-04-21T19:51:29.029Z,20.90
2019-04-21T19:53:54.018Z,20.90
2019-04-21T19:56:14.367Z,20.80
2019-04-21T19:58:46.055Z,20.80
2019-04-21T20:01:13.772Z,20.80
2019-04-21T20:03:43.147Z,20.70
2019-04-21T20:06:31.537Z,20.60
2019-04-21T20:09:00.726Z,20.60
2019-04-21T20:11:30.800Z,20.70
2019-04-21T20:14:35.746Z,20.70
2019-04-21T20:16:37.407Z,20.60
2019-04-21T20:18:49.545Z,20.60
2019-04-21T20:21:14.439Z,20.50
2019-04-21T20:23:44.694Z,20.50
2019-04-21T20:26:14.064Z,20.50
2019-04-21T20:28:54.731Z,20.50
2019-04-21T20:31:34.370Z,20.40
2019-04-21T20:34:07.823Z,20.30
2019-04-21T20:36:38.026Z,20.10
2019-04-21T20:38:51.534Z,19.90
2019-04-21T20:41:27.018Z,20.00
2019-04-21T20:44:06.211Z,20.00
2019-04-21T20:46:36.584Z,20.00
2019-04-21T20:49:00.077Z,20.00
2019-04-21T20:51:35.887Z,20.00
2019-04-21T20:54:00.519Z,20.00
2019-04-21T20:56:27.687Z,20.00
2019-04-21T20:58:59.993Z,20.00
2019-04-21T21:01:34.872Z,20.00
2019-04-21T21:04:02.281Z,19.70
2019-04-21T21:06:33.685Z,19.70
2019-04-21T21:09:06.156Z,19.70
2019-04-21T21:11:45.115Z,19.60
2019-04-21T21:14:06.990Z,19.40
2019-04-21T21:16:41.437Z,19.50
2019-04-21T21:21:34.115Z,19.40
2019-04-21T21:24:05.382Z,19.30
2019-04-21T21:26:36.789Z,19.30
2019-04-21T21:28:57.450Z,19.30
2019-04-21T21:31:38.712Z,19.30
2019-04-21T21:34:11.922Z,19.40
2019-04-21T21:36:36.758Z,19.30
2019-04-21T21:39:09.552Z,19.00
2019-04-21T21:41:26.422Z,19.00
2019-04-21T21:44:00.526Z,19.00
2019-04-21T21:46:36.778Z,19.00
2019-04-21T21:49:01.742Z,18.80
2019-04-21T21:51:35.854Z,18.80
2019-04-21T21:53:52.721Z,18.80
2019-04-21T21:56:22.678Z,18.70
2019-04-21T21:58:51.941Z,18.80
2019-04-21T22:01:31.997Z,18.70
2019-04-21T22:04:01.692Z,18.60
2019-04-21T22:06:23.939Z,18.40
2019-04-21T22:08:52.453Z,18.40
2019-04-21T22:11:22.131Z,18.40
2019-04-21T22:13:57.618Z,18.40
2019-04-21T22:16:21.838Z,18.30
2019-04-21T22:19:06.884Z,18.30
2019-04-21T22:21:41.538Z,18.20
2019-04-21T22:23:59.423Z,18.10
2019-04-21T22:26:22.969Z,18.00
2019-04-21T22:28:53.793Z,17.80
2019-04-21T22:31:26.870Z,17.80
2019-04-21T22:33:55.721Z,17.70
2019-04-21T22:36:35.435Z,17.70
2019-04-21T22:39:17.653Z,17.60
2019-04-21T22:41:31.010Z,17.60
2019-04-21T22:43:55.235Z,17.50
2019-04-21T22:46:24.421Z,17.50
2019-04-21T22:48:57.277Z,17.30
2019-04-21T22:51:30.525Z,17.30
2019-04-21T22:53:55.561Z,17.30
2019-04-21T22:56:26.862Z,17.30
2019-04-21T22:58:54.997Z,17.40
2019-04-21T23:01:33.391Z,17.20
2019-04-21T23:03:59.239Z,17.10
2019-04-21T23:06:29.049Z,17.20
2019-04-21T23:08:55.421Z,17.20
2019-04-21T23:11:29.287Z,17.20
2019-04-21T23:14:04.077Z,17.00
2019-04-21T23:16:30.101Z,17.00
2019-04-21T23:19:17.055Z,17.00
2019-04-21T23:21:45.799Z,17.00
2019-04-21T23:24:13.444Z,16.90
2019-04-21T23:26:42.030Z,17.00
2019-04-21T23:29:15.657Z,16.90
2019-04-21T23:31:48.299Z,16.90
2019-04-21T23:33:56.380Z,16.80
2019-04-21T23:36:29.671Z,16.90
2019-04-21T23:38:57.120Z,16.80
2019-04-21T23:41:33.579Z,16.70
2019-04-21T23:44:02.962Z,16.60
2019-04-21T23:46:29.844Z,16.50
2019-04-21T23:49:12.617Z,16.70
2019-04-21T23:51:37.738Z,16.70
2019-04-21T23:53:57.518Z,16.70
2019-04-21T23:56:33.284Z,16.70
2019-04-21T23:59:02.638Z,16.70
